createdAt,value
2018-10-07T00:02:03.193Z,14.87
2018-10-07T00:04:31.877Z,13.50
2018-10-07T00:07:00.630Z,9.37
2018-10-07T00:09:29.296Z,12.27
2018-10-07T00:11:57.979Z,9.57
2018-10-07T00:14:26.652Z,14.33
2018-10-07T00:16:55.377Z,13.07
2018-10-07T00:19:24.023Z,10.27
2018-10-07T00:21:52.685Z,13.97
2018-10-07T00:24:21.361Z,13.07
2018-10-07T00:26:49.998Z,12.87
2018-10-07T00:29:18.729Z,10.90
2018-10-07T00:31:52.971Z,12.13
2018-10-07T00:34:21.657Z,11.50
2018-10-07T00:36:50.334Z,14.30
2018-10-07T00:39:19.016Z,9.43
2018-10-07T00:41:47.676Z,10.00
2018-10-07T00:44:16.700Z,12.80
2018-10-07T00:46:45.368Z,13.30
2018-10-07T00:49:14.082Z,16.37
2018-10-07T00:51:42.744Z,12.73
2018-10-07T00:54:11.435Z,10.07
2018-10-07T00:56:40.081Z,13.37
2018-10-07T00:59:08.840Z,10.90
2018-10-07T01:01:37.499Z,12.07
2018-10-07T01:04:06.187Z,12.10
2018-10-07T01:06:34.865Z,14.43
2018-10-07T01:09:03.619Z,12.27
2018-10-07T01:11:32.311Z,13.53
2018-10-07T01:14:00.996Z,10.07
2018-10-07T01:16:29.759Z,11.70
2018-10-07T01:18:58.577Z,11.53
2018-10-07T01:21:27.449Z,9.90
2018-10-07T01:23:56.220Z,10.70
2018-10-07T01:26:24.881Z,11.50
2018-10-07T01:28:53.566Z,12.23
2018-10-07T01:31:22.259Z,11.13
2018-10-07T01:33:50.937Z,11.70
2018-10-07T01:36:19.915Z,10.93
2018-10-07T01:38:48.585Z,12.57
2018-10-07T01:41:17.257Z,10.87
2018-10-07T01:43:46.069Z,11.50
2018-10-07T01:46:14.973Z,14.83
2018-10-07T01:48:43.747Z,13.83
2018-10-07T01:51:12.439Z,10.70
2018-10-07T01:53:41.136Z,13.00
2018-10-07T01:56:09.796Z,13.40
2018-10-07T01:58:38.468Z,13.17
2018-10-07T02:01:07.128Z,11.93
2018-10-07T02:03:35.787Z,10.97
2018-10-07T02:06:04.424Z,10.70
2018-10-07T02:08:33.119Z,13.13
2018-10-07T02:11:01.846Z,11.87
2018-10-07T02:13:30.560Z,10.67
2018-10-07T02:15:59.236Z,13.27
2018-10-07T02:18:27.884Z,14.27
2018-10-07T02:20:56.558Z,12.60
2018-10-07T02:23:25.216Z,10.87
2018-10-07T02:25:54.022Z,10.77
2018-10-07T02:28:22.718Z,11.73
2018-10-07T02:30:51.384Z,10.47
2018-10-07T02:33:20.046Z,15.20
2018-10-07T02:35:48.738Z,11.27
2018-10-07T02:38:17.480Z,11.60
2018-10-07T02:40:46.182Z,11.60
2018-10-07T02:43:14.842Z,12.77
2018-10-07T02:45:43.628Z,11.97
2018-10-07T02:48:12.488Z,13.20
2018-10-07T02:50:41.380Z,13.60
2018-10-07T02:53:10.277Z,10.07
2018-10-07T02:55:39.145Z,10.20
2018-10-07T02:58:08.022Z,12.97
2018-10-07T03:00:36.813Z,10.83
2018-10-07T03:03:05.673Z,11.07
2018-10-07T03:05:34.523Z,12.13
2018-10-07T03:08:03.403Z,12.57
2018-10-07T03:10:32.409Z,11.23
2018-10-07T03:13:07.743Z,11.83
2018-10-07T03:15:36.551Z,10.77
2018-10-07T03:18:05.207Z,12.60
2018-10-07T03:20:33.889Z,12.67
2018-10-07T03:23:02.565Z,11.40
2018-10-07T03:25:31.239Z,11.87
2018-10-07T03:27:59.912Z,13.03
2018-10-07T03:30:28.580Z,9.37
2018-10-07T03:32:57.279Z,13.33
2018-10-07T03:35:25.945Z,11.80
2018-10-07T03:37:54.613Z,11.60
2018-10-07T03:40:23.292Z,11.53
2018-10-07T03:42:51.959Z,11.60
2018-10-07T03:45:20.624Z,10.60
2018-10-07T03:47:49.324Z,12.53
2018-10-07T03:50:17.980Z,14.10
2018-10-07T03:52:46.676Z,13.00
2018-10-07T03:55:15.316Z,11.93
2018-10-07T03:57:44.005Z,13.33
2018-10-07T04:00:12.676Z,14.40
2018-10-07T04:02:41.320Z,16.83
2018-10-07T04:05:10.002Z,22.80
2018-10-07T04:07:38.903Z,13.37
2018-10-07T04:10:07.764Z,12.43
2018-10-07T04:12:36.637Z,12.53
2018-10-07T04:15:05.521Z,11.57
2018-10-07T04:17:34.382Z,12.47
2018-10-07T04:20:03.293Z,11.57
2018-10-07T04:22:32.116Z,11.40
2018-10-07T04:25:01.020Z,13.73
2018-10-07T04:27:29.709Z,12.30
2018-10-07T04:29:58.388Z,13.77
2018-10-07T04:32:27.059Z,16.83
2018-10-07T04:34:55.727Z,11.00
2018-10-07T04:37:24.421Z,11.73
2018-10-07T04:39:53.141Z,12.87
2018-10-07T04:42:21.821Z,12.47
2018-10-07T04:44:50.501Z,9.57
2018-10-07T04:47:19.193Z,10.87
2018-10-07T04:49:47.845Z,11.53
2018-10-07T04:52:16.499Z,10.23
2018-10-07T04:54:45.176Z,12.77
2018-10-07T04:57:13.873Z,12.87
2018-10-07T04:59:42.542Z,10.17
2018-10-07T05:02:11.273Z,10.13
2018-10-07T05:04:39.931Z,13.03
2018-10-07T05:07:08.611Z,13.13
2018-10-07T05:09:37.285Z,15.83
2018-10-07T05:12:07.992Z,11.00
2018-10-07T05:14:36.583Z,12.37
2018-10-07T05:17:05.244Z,11.00
2018-10-07T05:19:33.916Z,11.37
2018-10-07T05:22:02.585Z,11.30
2018-10-07T05:24:31.243Z,12.00
2018-10-07T05:26:59.924Z,13.97
2018-10-07T05:29:28.604Z,14.20
2018-10-07T05:31:57.275Z,11.17
2018-10-07T05:34:25.945Z,11.43
2018-10-07T05:36:54.588Z,13.20
2018-10-07T05:39:23.269Z,15.77
2018-10-07T05:41:51.970Z,11.03
2018-10-07T05:44:20.670Z,12.63
2018-10-07T05:46:49.294Z,12.30
2018-10-07T05:49:18.050Z,12.03
2018-10-07T05:51:46.692Z,10.77
2018-10-07T05:54:15.378Z,10.53
2018-10-07T05:56:44.064Z,12.13
2018-10-07T05:59:12.844Z,14.33
2018-10-07T06:01:42.876Z,13.80
2018-10-07T06:04:28.906Z,14.10
2018-10-07T06:06:59.243Z,12.87
2018-10-07T06:09:30.090Z,14.03
2018-10-07T06:11:58.798Z,14.00
2018-10-07T06:14:39.161Z,14.03
2018-10-07T06:17:07.847Z,18.33
2018-10-07T06:19:36.929Z,14.73
2018-10-07T06:22:06.058Z,16.43
2018-10-07T06:24:35.473Z,20.83
2018-10-07T06:27:04.669Z,18.57
2018-10-07T06:29:33.416Z,19.80
2018-10-07T06:32:02.086Z,18.90
2018-10-07T06:34:30.782Z,19.80
2018-10-07T06:36:59.470Z,19.27
2018-10-07T06:39:28.156Z,22.90
2018-10-07T06:41:56.822Z,21.70
2018-10-07T06:44:25.502Z,28.53
2018-10-07T06:46:54.189Z,27.67
2018-10-07T06:49:22.898Z,25.87
2018-10-07T06:51:51.610Z,27.20
2018-10-07T06:54:20.346Z,30.70
2018-10-07T06:56:49.407Z,29.10
2018-10-07T06:59:18.091Z,30.10
2018-10-07T07:01:46.782Z,31.73
2018-10-07T07:04:15.446Z,27.47
2018-10-07T07:06:44.265Z,34.80
2018-10-07T07:09:13.257Z,31.87
2018-10-07T07:11:41.959Z,31.10
2018-10-07T07:14:10.630Z,30.77
2018-10-07T07:16:39.319Z,30.57
2018-10-07T07:19:08.007Z,30.37
2018-10-07T07:21:36.721Z,29.77
2018-10-07T07:24:05.442Z,26.17
2018-10-07T07:26:34.113Z,31.63
2018-10-07T07:29:02.846Z,27.83
2018-10-07T07:31:31.696Z,26.20
2018-10-07T07:34:00.431Z,25.10
2018-10-07T07:36:29.284Z,27.57
2018-10-07T07:38:58.141Z,24.10
2018-10-07T07:41:27.091Z,25.30
2018-10-07T07:43:55.986Z,25.87
2018-10-07T07:46:24.833Z,25.67
2018-10-07T07:48:53.785Z,20.90
2018-10-07T07:51:22.580Z,27.33
2018-10-07T07:53:51.511Z,21.23
2018-10-07T07:56:20.366Z,21.07
2018-10-07T07:58:49.245Z,18.63
2018-10-07T08:01:18.225Z,18.43
2018-10-07T08:03:47.086Z,17.47
2018-10-07T08:06:15.916Z,14.17
2018-10-07T08:08:44.849Z,15.27
2018-10-07T08:11:13.677Z,13.23
2018-10-07T08:13:42.573Z,8.97
2018-10-07T08:16:11.254Z,11.43
2018-10-07T08:18:39.907Z,8.20
2018-10-07T08:21:08.553Z,8.50
2018-10-07T08:23:37.247Z,6.90
2018-10-07T08:26:06.125Z,7.93
2018-10-07T08:28:34.845Z,7.57
2018-10-07T08:31:03.564Z,6.33
2018-10-07T08:33:32.259Z,7.30
2018-10-07T08:36:00.937Z,7.77
2018-10-07T08:38:29.684Z,8.27
2018-10-07T08:40:58.364Z,7.20
2018-10-07T08:43:27.039Z,12.20
2018-10-07T08:45:55.727Z,10.13
2018-10-07T08:48:24.425Z,6.13
2018-10-07T08:50:53.097Z,6.20
2018-10-07T08:53:21.755Z,6.70
2018-10-07T08:55:50.460Z,4.60
2018-10-07T09:00:56.385Z,6.00
2018-10-07T09:03:25.065Z,4.17
2018-10-07T09:05:53.739Z,3.53
2018-10-07T09:08:22.399Z,4.23
2018-10-07T09:10:51.120Z,2.70
2018-10-07T09:13:19.832Z,3.13
2018-10-07T09:15:48.556Z,4.23
2018-10-07T09:18:17.252Z,6.83
2018-10-07T09:20:45.988Z,6.90
2018-10-07T09:23:14.634Z,2.93
2018-10-07T09:25:43.313Z,2.37
2018-10-07T09:28:12.033Z,2.20
2018-10-07T09:30:40.736Z,4.33
2018-10-07T09:33:09.388Z,2.00
2018-10-07T09:35:38.079Z,2.93
2018-10-07T09:38:06.734Z,3.20
2018-10-07T09:40:35.438Z,2.47
2018-10-07T09:43:04.143Z,2.00
2018-10-07T09:45:32.862Z,10.57
2018-10-07T09:48:01.557Z,3.20
2018-10-07T09:50:30.266Z,3.47
2018-10-07T09:52:58.900Z,1.37
2018-10-07T09:55:27.586Z,4.33
2018-10-07T09:57:56.704Z,5.83
2018-10-07T10:00:30.952Z,6.57
2018-10-07T10:02:59.638Z,4.03
2018-10-07T10:05:28.315Z,0.70
2018-10-07T10:07:57.008Z,3.50
2018-10-07T10:10:25.690Z,4.67
2018-10-07T10:12:54.382Z,3.10
2018-10-07T10:15:23.076Z,5.23
2018-10-07T10:17:56.156Z,5.60
2018-10-07T10:20:26.654Z,2.60
2018-10-07T10:23:04.043Z,5.93
2018-10-07T10:25:50.832Z,5.23
2018-10-07T10:28:33.064Z,1.77
2018-10-07T10:31:04.716Z,1.60
2018-10-07T10:33:35.485Z,3.77
2018-10-07T10:36:13.903Z,3.37
2018-10-07T10:39:01.859Z,3.20
2018-10-07T10:41:53.056Z,2.03
2018-10-07T10:44:23.970Z,1.87
2018-10-07T10:47:01.490Z,1.13
2018-10-07T10:51:43.574Z,1.87
2018-10-07T10:54:16.553Z,3.67
2018-10-07T10:56:50.878Z,2.20
2018-10-07T10:59:30.615Z,3.17
2018-10-07T11:04:25.034Z,4.17
2018-10-07T11:07:02.183Z,1.40
2018-10-07T11:11:43.190Z,2.93
2018-10-07T11:16:26.805Z,1.30
2018-10-07T11:19:07.064Z,9.03
2018-10-07T11:21:50.715Z,1.40
2018-10-07T11:24:22.473Z,0.93
2018-10-07T11:26:58.616Z,1.20
2018-10-07T11:31:40.202Z,2.10
2018-10-07T11:34:17.318Z,0.90
2018-10-07T11:36:56.632Z,3.23
2018-10-07T11:39:35.450Z,2.50
2018-10-07T11:42:09.650Z,2.93
2018-10-07T11:44:54.080Z,0.63
2018-10-07T11:49:34.522Z,0.77
2018-10-07T11:52:19.972Z,2.07
2018-10-07T11:54:57.036Z,5.30
2018-10-07T11:57:25.972Z,7.70
2018-10-07T11:59:54.710Z,1.57
2018-10-07T12:02:23.388Z,1.23
2018-10-07T12:04:52.419Z,5.60
2018-10-07T12:07:21.091Z,4.07
2018-10-07T12:09:49.772Z,9.93
2018-10-07T12:12:18.425Z,4.60
2018-10-07T12:14:47.368Z,0.80
2018-10-07T12:17:16.044Z,3.27
2018-10-07T12:19:44.710Z,1.53
2018-10-07T12:22:13.394Z,0.60
2018-10-07T12:24:42.095Z,3.90
2018-10-07T12:27:11.433Z,0.90
2018-10-07T12:29:40.288Z,1.73
2018-10-07T12:32:09.488Z,7.60
2018-10-07T12:34:38.169Z,0.70
2018-10-07T12:37:07.073Z,0.60
2018-10-07T12:39:36.271Z,0.73
2018-10-07T12:42:05.169Z,1.83
2018-10-07T12:44:40.650Z,2.07
2018-10-07T12:47:09.300Z,4.77
2018-10-07T12:49:38.080Z,15.57
2018-10-07T12:52:06.907Z,2.90
2018-10-07T12:54:35.674Z,4.00
2018-10-07T12:57:04.297Z,1.77
2018-10-07T12:59:32.957Z,1.23
2018-10-07T13:02:01.663Z,2.03
2018-10-07T13:04:30.384Z,2.07
2018-10-07T13:06:59.065Z,1.13
2018-10-07T13:09:27.805Z,1.43
2018-10-07T13:11:56.452Z,0.50
2018-10-07T13:14:25.144Z,1.33
2018-10-07T13:16:54.159Z,2.90
2018-10-07T13:19:23.054Z,0.97
2018-10-07T13:21:51.737Z,5.20
2018-10-07T13:24:20.590Z,2.57
2018-10-07T13:26:49.415Z,0.73
2018-10-07T13:29:18.237Z,3.03
2018-10-07T13:31:47.205Z,0.77
2018-10-07T13:34:16.097Z,2.30
2018-10-07T13:36:44.793Z,1.17
2018-10-07T13:39:13.721Z,2.60
2018-10-07T13:41:42.523Z,1.77
2018-10-07T13:44:11.227Z,2.43
2018-10-07T13:46:39.933Z,5.83
2018-10-07T13:49:08.579Z,3.60
2018-10-07T13:51:37.274Z,0.93
2018-10-07T13:54:05.935Z,0.67
2018-10-07T13:56:34.616Z,2.60
2018-10-07T13:59:03.263Z,5.60
2018-10-07T14:01:32.002Z,2.87
2018-10-07T14:04:00.731Z,3.60
2018-10-07T14:06:29.422Z,1.63
2018-10-07T14:08:58.159Z,3.50
2018-10-07T14:11:26.904Z,5.33
2018-10-07T14:13:55.586Z,1.70
2018-10-07T14:16:24.302Z,1.10
2018-10-07T14:18:53.037Z,0.97
2018-10-07T14:21:21.746Z,2.00
2018-10-07T14:23:50.438Z,1.33
2018-10-07T14:26:19.103Z,2.10
2018-10-07T14:28:47.772Z,1.90
2018-10-07T14:31:16.552Z,2.80
2018-10-07T14:33:45.232Z,1.33
2018-10-07T14:36:13.930Z,1.10
2018-10-07T14:38:42.894Z,1.47
2018-10-07T14:41:11.576Z,1.63
2018-10-07T14:43:40.282Z,1.03
2018-10-07T14:46:08.976Z,3.30
2018-10-07T14:48:37.735Z,1.47
2018-10-07T14:51:06.414Z,3.00
2018-10-07T14:53:35.106Z,0.87
2018-10-07T14:56:03.793Z,2.43
2018-10-07T14:58:32.540Z,2.27
2018-10-07T15:01:01.207Z,6.47
2018-10-07T15:03:29.907Z,1.20
2018-10-07T15:05:58.580Z,3.83
2018-10-07T15:08:27.259Z,1.27
2018-10-07T15:10:55.909Z,1.30
2018-10-07T15:13:24.563Z,2.23
2018-10-07T15:15:53.207Z,2.17
2018-10-07T15:18:21.900Z,2.57
2018-10-07T15:20:50.571Z,10.47
2018-10-07T15:23:19.235Z,3.53
2018-10-07T15:25:47.907Z,4.10
2018-10-07T15:28:16.569Z,1.57
2018-10-07T15:30:45.276Z,1.13
2018-10-07T15:33:13.950Z,3.60
2018-10-07T15:35:43.425Z,1.07
2018-10-07T15:38:12.020Z,1.20
2018-10-07T15:40:40.709Z,1.07
2018-10-07T15:43:09.392Z,2.67
2018-10-07T15:45:38.063Z,1.93
2018-10-07T15:48:06.815Z,1.33
2018-10-07T15:53:49.536Z,3.27
2018-10-07T15:56:20.890Z,2.67
2018-10-07T15:58:53.257Z,0.77
2018-10-07T16:01:31.180Z,1.47
2018-10-07T16:10:33.963Z,4.17
2018-10-07T16:13:02.828Z,6.63
2018-10-07T16:15:31.498Z,6.53
2018-10-07T16:18:00.154Z,3.30
2018-10-07T16:20:28.880Z,2.47
2018-10-07T16:22:57.576Z,2.03
2018-10-07T16:25:26.254Z,4.57
2018-10-07T16:27:54.956Z,8.13
2018-10-07T16:30:23.646Z,4.83
2018-10-07T16:32:52.362Z,4.57
2018-10-07T16:35:21.070Z,9.13
2018-10-07T16:37:49.736Z,38.57
2018-10-07T16:40:18.404Z,21.87
2018-10-07T16:42:47.126Z,11.63
2018-10-07T16:45:15.869Z,5.70
2018-10-07T16:47:44.547Z,3.67
2018-10-07T16:50:13.245Z,3.07
2018-10-07T16:52:41.933Z,3.67
2018-10-07T16:55:10.590Z,2.77
2018-10-07T16:57:39.247Z,1.73
2018-10-07T17:00:07.963Z,3.13
2018-10-07T17:02:36.598Z,6.77
2018-10-07T17:05:05.298Z,7.57
2018-10-07T17:07:34.220Z,4.27
2018-10-07T17:10:03.075Z,2.20
2018-10-07T17:12:31.969Z,3.10
2018-10-07T17:15:00.860Z,17.67
2018-10-07T17:17:29.627Z,13.40
2018-10-07T17:19:58.335Z,13.10
2018-10-07T17:22:26.989Z,10.90
2018-10-07T17:24:55.659Z,12.73
2018-10-07T17:27:24.427Z,39.53
2018-10-07T17:29:53.163Z,17.03
2018-10-07T17:32:22.082Z,8.57
2018-10-07T17:34:51.021Z,13.10
2018-10-07T17:37:19.722Z,7.17
2018-10-07T17:39:48.452Z,8.53
2018-10-07T17:42:17.133Z,5.07
2018-10-07T17:44:45.797Z,10.23
2018-10-07T17:47:14.457Z,7.20
2018-10-07T17:49:43.175Z,20.63
2018-10-07T17:52:11.857Z,21.63
2018-10-07T17:54:40.596Z,61.60
2018-10-07T17:57:09.238Z,20.70
2018-10-07T17:59:37.934Z,13.83
2018-10-07T18:02:06.766Z,15.73
2018-10-07T18:04:35.478Z,10.10
2018-10-07T18:07:04.159Z,16.40
2018-10-07T18:09:32.817Z,10.37
2018-10-07T18:12:01.522Z,13.60
2018-10-07T18:14:30.216Z,13.80
2018-10-07T18:16:58.918Z,9.40
2018-10-07T18:19:27.595Z,14.53
2018-10-07T18:21:56.436Z,13.60
2018-10-07T18:24:25.060Z,10.73
2018-10-07T18:26:53.816Z,9.80
2018-10-07T18:29:22.558Z,19.13
2018-10-07T18:31:51.266Z,12.40
2018-10-07T18:34:19.973Z,10.67
2018-10-07T18:36:48.712Z,12.10
2018-10-07T18:39:17.371Z,9.30
2018-10-07T18:41:46.105Z,9.27
2018-10-07T18:44:14.773Z,13.53
2018-10-07T18:46:43.504Z,13.67
2018-10-07T18:49:12.244Z,12.53
2018-10-07T18:51:40.918Z,13.50
2018-10-07T18:54:09.653Z,14.17
2018-10-07T18:56:38.323Z,17.50
2018-10-07T18:59:06.990Z,27.47
2018-10-07T19:01:35.683Z,20.73
2018-10-07T19:04:04.417Z,15.77
2018-10-07T19:06:33.109Z,12.43
2018-10-07T19:09:01.839Z,13.10
2018-10-07T19:11:30.517Z,16.00
2018-10-07T19:13:59.195Z,13.33
2018-10-07T19:16:27.899Z,14.77
2018-10-07T19:18:56.566Z,14.87
2018-10-07T19:21:25.283Z,21.93
2018-10-07T19:23:53.930Z,14.33
2018-10-07T19:26:22.629Z,14.03
2018-10-07T19:28:51.401Z,11.83
2018-10-07T19:31:20.103Z,15.93
2018-10-07T19:33:48.802Z,18.33
2018-10-07T19:36:17.688Z,17.70
2018-10-07T19:38:46.412Z,19.10
2018-10-07T19:41:15.108Z,12.47
2018-10-07T19:43:43.834Z,13.40
2018-10-07T19:46:12.576Z,13.57
2018-10-07T19:48:41.241Z,12.93
2018-10-07T19:51:09.934Z,12.80
2018-10-07T19:53:38.596Z,9.00
2018-10-07T19:56:07.274Z,11.43
2018-10-07T19:58:35.962Z,9.07
2018-10-07T20:01:04.651Z,7.97
2018-10-07T20:03:33.358Z,6.10
2018-10-07T20:06:02.066Z,5.77
2018-10-07T20:08:30.768Z,5.87
2018-10-07T20:10:59.568Z,6.47
2018-10-07T20:13:28.368Z,7.50
2018-10-07T20:15:57.072Z,8.53
2018-10-07T20:18:25.806Z,6.57
2018-10-07T20:20:54.519Z,8.63
2018-10-07T20:23:23.208Z,5.90
2018-10-07T20:25:51.868Z,6.43
2018-10-07T20:28:20.672Z,6.90
2018-10-07T20:30:49.348Z,10.97
2018-10-07T20:33:18.045Z,9.23
2018-10-07T20:35:46.753Z,8.83
2018-10-07T20:38:15.417Z,6.90
2018-10-07T20:40:44.150Z,9.70
2018-10-07T20:43:12.764Z,8.70
2018-10-07T20:45:41.431Z,9.27
2018-10-07T20:48:10.113Z,7.57
2018-10-07T20:50:38.765Z,9.90
2018-10-07T20:53:07.436Z,8.27
2018-10-07T20:55:36.151Z,10.37
2018-10-07T20:58:04.856Z,7.77
2018-10-07T21:00:33.531Z,7.73
2018-10-07T21:03:02.201Z,10.90
2018-10-07T21:05:30.861Z,9.93
2018-10-07T21:07:59.515Z,7.70
2018-10-07T21:10:28.164Z,6.40
2018-10-07T21:12:56.865Z,9.83
2018-10-07T21:15:25.535Z,9.73
2018-10-07T21:17:54.347Z,8.20
2018-10-07T21:20:23.203Z,9.70
2018-10-07T21:22:52.033Z,7.23
2018-10-07T21:25:20.887Z,8.00
2018-10-07T21:27:49.593Z,7.50
2018-10-07T21:30:18.236Z,9.43
2018-10-07T21:32:46.918Z,9.67
2018-10-07T21:35:15.593Z,9.07
2018-10-07T21:37:44.269Z,7.63
2018-10-07T21:40:12.905Z,9.80
2018-10-07T21:42:41.585Z,8.33
2018-10-07T21:45:10.279Z,9.43
2018-10-07T21:47:39.088Z,7.53
2018-10-07T21:50:07.874Z,7.37
2018-10-07T21:52:36.692Z,8.10
2018-10-07T21:55:05.548Z,8.63
2018-10-07T21:57:34.222Z,6.30
2018-10-07T22:00:02.902Z,7.13
2018-10-07T22:02:31.581Z,10.97
2018-10-07T22:05:00.232Z,9.90
2018-10-07T22:07:28.910Z,8.33
2018-10-07T22:09:57.784Z,10.97
2018-10-07T22:12:26.453Z,9.47
2018-10-07T22:14:55.138Z,11.60
2018-10-07T22:17:23.812Z,10.37
2018-10-07T22:19:52.495Z,9.00
2018-10-07T22:22:21.156Z,6.63
2018-10-07T22:24:49.823Z,10.03
2018-10-07T22:27:18.524Z,8.03
2018-10-07T22:29:47.159Z,10.07
2018-10-07T22:32:15.819Z,6.60
2018-10-07T22:34:44.484Z,7.83
2018-10-07T22:37:13.148Z,7.27
2018-10-07T22:39:41.818Z,10.87
2018-10-07T22:42:10.499Z,11.30
2018-10-07T22:44:39.155Z,7.47
2018-10-07T22:47:07.805Z,9.17
2018-10-07T22:49:36.477Z,8.07
2018-10-07T22:52:05.452Z,8.37
2018-10-07T22:54:34.106Z,7.80
2018-10-07T22:57:02.752Z,6.07
2018-10-07T22:59:31.402Z,7.27
2018-10-07T23:02:00.063Z,10.07
2018-10-07T23:04:28.730Z,7.07
2018-10-07T23:06:57.389Z,6.37
2018-10-07T23:09:26.035Z,4.87
2018-10-07T23:11:54.679Z,5.00
2018-10-07T23:14:23.348Z,5.57
2018-10-07T23:16:52.021Z,5.00
2018-10-07T23:19:20.780Z,5.53
2018-10-07T23:21:49.417Z,6.60
2018-10-07T23:24:18.073Z,6.07
2018-10-07T23:26:46.722Z,5.77
2018-10-07T23:29:15.385Z,7.50
2018-10-07T23:31:44.059Z,9.07
2018-10-07T23:34:12.705Z,5.70
2018-10-07T23:36:41.454Z,5.97
2018-10-07T23:39:11.215Z,6.93
2018-10-07T23:41:39.894Z,5.30
2018-10-07T23:44:08.894Z,5.00
2018-10-07T23:46:37.670Z,5.63
2018-10-07T23:49:06.334Z,4.73
2018-10-07T23:51:35.344Z,4.00
2018-10-07T23:54:03.805Z,5.30
2018-10-07T23:56:32.446Z,4.80
2018-10-07T23:59:01.108Z,4.73
